PWSweather.com
Personal Weather Stations
Station Observations
TARRYHILL
Tarrytown, NY 10591

Tarrytown, NY 10591

Lat: 41.05185, Lon: -73.85296

Elevation: 341

Station Type: Davis Vantage Vue

www.tarrytownnyweather.com

High Low Average
Temperature 82.5°F28.1°C 68.9°F20.5°C 74.3°F23.5°C
Dew Point 72.8°F22.7°C 67.3°F19.6°C 69.5°F20.8°C
Winds 5.8 mph 9.3 kmh Calm Calm 1.0 mph SSW1.6 kmh SSW
Wind Gusts 11.5 mph18.5 kmh -- 3.0 mph4.8 kmh
Humidity 97% 64% 86%
Pressure 29.90 in1012.5 mb 29.81 in1009.5 mb -
Precipitation 0.01 in0.3 mm - -
Hour Temp Dew Point Humidity Winds Wind Gusts Pressure Precip Precip Rate Daily Precip Total
12:00 AM 71.3°F21.8°C 70.1°F21.2°C 96% Calm Calm -- 29.89 in1012.2 mb - 0.00 in0.0 mm 0.00 in0.0 mm
12:30 AM 70.6°F21.4°C 69.4°F20.8°C 96% Calm Calm -- 29.91 in1012.9 mb - 0.00 in0.0 mm 0.00 in0.0 mm
01:00 AM 70.5°F21.4°C 69.3°F20.7°C 96% Calm Calm -- 29.90 in1012.5 mb - 0.00 in0.0 mm 0.00 in0.0 mm
01:30 AM 70.3°F21.3°C 69.1°F20.6°C 96% Calm Calm 1.2 mph1.9 kmh 29.90 in1012.5 mb - 0.00 in0.0 mm 0.00 in0.0 mm
02:00 AM 70.6°F21.4°C 69.4°F20.8°C 96% Calm Calm -- 29.89 in1012.2 mb - 0.00 in0.0 mm 0.00 in0.0 mm
02:30 AM 70.3°F21.3°C 69.1°F20.6°C 96% Calm Calm -- 29.88 in1011.9 mb - 0.00 in0.0 mm 0.00 in0.0 mm
03:00 AM 70.0°F21.1°C 68.8°F20.4°C 96% Calm Calm -- 29.88 in1011.9 mb - 0.00 in0.0 mm 0.00 in0.0 mm
03:30 AM 69.8°F21.0°C 68.6°F20.3°C 96% Calm Calm -- 29.88 in1011.9 mb - 0.00 in0.0 mm 0.00 in0.0 mm
04:00 AM 69.9°F21.1°C 68.7°F20.4°C 96% Calm Calm -- 29.87 in1011.5 mb - 0.00 in0.0 mm 0.00 in0.0 mm
04:30 AM 69.8°F21.0°C 68.6°F20.3°C 96% Calm Calm -- 29.87 in1011.5 mb - 0.00 in0.0 mm 0.00 in0.0 mm
05:00 AM 69.6°F20.9°C 68.4°F20.2°C 96% Calm Calm -- 29.87 in1011.5 mb - 0.00 in0.0 mm 0.00 in0.0 mm
05:30 AM 68.9°F20.5°C 67.7°F19.8°C 96% Calm Calm -- 29.87 in1011.5 mb - 0.00 in0.0 mm 0.00 in0.0 mm
06:00 AM 69.6°F20.9°C 68.7°F20.4°C 97% Calm Calm 1.2 mph1.9 kmh 29.88 in1011.9 mb - 0.00 in0.0 mm 0.00 in0.0 mm
06:30 AM 69.4°F20.8°C 68.5°F20.3°C 97% Calm Calm -- 29.89 in1012.2 mb - 0.01 in0.3 mm 0.01 in0.3 mm
07:00 AM 69.7°F20.9°C 68.8°F20.4°C 97% Calm Calm -- 29.89 in1012.2 mb - 0.00 in0.0 mm 0.01 in0.3 mm
07:30 AM 70.3°F21.3°C 69.4°F20.8°C 97% Calm Calm 1.2 mph1.9 kmh 29.89 in1012.2 mb - 0.00 in0.0 mm 0.01 in0.3 mm
08:00 AM 71.2°F21.8°C 70.3°F21.3°C 97% Calm Calm -- 29.89 in1012.2 mb - 0.00 in0.0 mm 0.01 in0.3 mm
08:30 AM 72.2°F22.3°C 71.0°F21.7°C 96% 1.2 mph S1.9 kmh S 2.3 mph3.7 kmh 29.89 in1012.2 mb - 0.00 in0.0 mm 0.01 in0.3 mm
09:00 AM 74.4°F23.6°C 72.8°F22.7°C 95% Calm Calm 1.2 mph1.9 kmh 29.88 in1011.9 mb - 0.00 in0.0 mm 0.01 in0.3 mm
09:30 AM 73.1°F22.8°C 71.3°F21.8°C 94% Calm Calm 2.3 mph3.7 kmh 29.88 in1011.9 mb - 0.00 in0.0 mm 0.01 in0.3 mm
10:00 AM 74.5°F23.6°C 72.0°F22.2°C 92% Calm Calm -- 29.89 in1012.2 mb - 0.00 in0.0 mm 0.01 in0.3 mm
10:30 AM 76.4°F24.7°C 72.3°F22.4°C 87% 2.3 mph S3.7 kmh S 3.5 mph5.6 kmh 29.89 in1012.2 mb - 0.00 in0.0 mm 0.01 in0.3 mm
11:00 AM 78.6°F25.9°C 72.6°F22.6°C 82% 1.2 mph SSE1.9 kmh SSE 3.5 mph5.6 kmh 29.88 in1011.9 mb - 0.00 in0.0 mm 0.01 in0.3 mm
11:30 AM 78.9°F26.1°C 71.8°F22.1°C 79% 2.3 mph SSW3.7 kmh SSW 8.1 mph13.0 kmh 29.88 in1011.9 mb - 0.00 in0.0 mm 0.01 in0.3 mm
12:00 PM 79.9°F26.6°C 71.3°F21.8°C 75% 3.5 mph SSE5.6 kmh SSE 8.1 mph13.0 kmh 29.87 in1011.5 mb - 0.00 in0.0 mm 0.01 in0.3 mm
12:30 PM 78.2°F25.7°C 70.4°F21.3°C 77% 3.5 mph SSW5.6 kmh SSW 5.8 mph9.3 kmh 29.87 in1011.5 mb - 0.00 in0.0 mm 0.01 in0.3 mm
01:00 PM 80.7°F27.1°C 70.4°F21.3°C 71% 5.8 mph SW9.3 kmh SW 11.5 mph18.5 kmh 29.86 in1011.2 mb - 0.00 in0.0 mm 0.01 in0.3 mm
01:30 PM 82.1°F27.8°C 70.9°F21.6°C 69% 1.2 mph S1.9 kmh S 3.5 mph5.6 kmh 29.85 in1010.8 mb - 0.00 in0.0 mm 0.01 in0.3 mm
02:00 PM 82.4°F28.0°C 69.0°F20.6°C 64% 4.6 mph SSW7.4 kmh SSW 10.4 mph16.7 kmh 29.84 in1010.5 mb - 0.00 in0.0 mm 0.01 in0.3 mm
02:30 PM 82.5°F28.1°C 69.1°F20.6°C 64% 2.3 mph WSW3.7 kmh WSW 5.8 mph9.3 kmh 29.83 in1010.2 mb - 0.00 in0.0 mm 0.01 in0.3 mm
03:00 PM 81.9°F27.7°C 69.0°F20.6°C 65% 4.6 mph SW7.4 kmh SW 6.9 mph11.1 kmh 29.82 in1009.8 mb - 0.00 in0.0 mm 0.01 in0.3 mm
03:30 PM 81.2°F27.3°C 69.2°F20.7°C 67% 3.5 mph SW5.6 kmh SW 8.1 mph13.0 kmh 29.81 in1009.5 mb - 0.00 in0.0 mm 0.01 in0.3 mm
04:00 PM 82.2°F27.9°C 70.6°F21.4°C 68% 2.3 mph SW3.7 kmh SW 4.6 mph7.4 kmh 29.81 in1009.5 mb - 0.00 in0.0 mm 0.01 in0.3 mm
04:30 PM 78.4°F25.8°C 67.8°F19.9°C 70% 3.5 mph SSW5.6 kmh SSW 4.6 mph7.4 kmh 29.82 in1009.8 mb - 0.00 in0.0 mm 0.01 in0.3 mm
05:00 PM 76.2°F24.6°C 69.6°F20.9°C 80% 1.2 mph SSW1.9 kmh SSW 3.5 mph5.6 kmh 29.82 in1009.8 mb - 0.00 in0.0 mm 0.01 in0.3 mm
05:30 PM 77.7°F25.4°C 70.3°F21.3°C 78% 1.2 mph SSW1.9 kmh SSW 10.4 mph16.7 kmh 29.81 in1009.5 mb - 0.00 in0.0 mm 0.01 in0.3 mm
06:00 PM 78.4°F25.8°C 70.2°F21.2°C 76% 1.2 mph SW1.9 kmh SW 3.5 mph5.6 kmh 29.81 in1009.5 mb - 0.00 in0.0 mm 0.01 in0.3 mm
06:30 PM 76.5°F24.7°C 69.5°F20.8°C 79% 2.3 mph SW3.7 kmh SW 3.5 mph5.6 kmh 29.81 in1009.5 mb - 0.00 in0.0 mm 0.01 in0.3 mm
07:00 PM 74.7°F23.7°C 69.9°F21.1°C 85% 2.3 mph SSW3.7 kmh SSW 3.5 mph5.6 kmh 29.82 in1009.8 mb - 0.00 in0.0 mm 0.01 in0.3 mm
07:30 PM 74.5°F23.6°C 70.0°F21.1°C 86% 1.2 mph S1.9 kmh S 3.5 mph5.6 kmh 29.82 in1009.8 mb - 0.00 in0.0 mm 0.01 in0.3 mm
08:00 PM 74.0°F23.3°C 68.5°F20.3°C 83% 1.2 mph S1.9 kmh S 3.5 mph5.6 kmh 29.83 in1010.2 mb - 0.00 in0.0 mm 0.01 in0.3 mm
08:30 PM 72.2°F22.3°C 68.8°F20.4°C 89% Calm Calm 1.2 mph1.9 kmh 29.83 in1010.2 mb - 0.00 in0.0 mm 0.01 in0.3 mm
09:00 PM 71.8°F22.1°C 68.7°F20.4°C 90% Calm Calm 2.3 mph3.7 kmh 29.83 in1010.2 mb - 0.00 in0.0 mm 0.01 in0.3 mm
09:30 PM 71.2°F21.8°C 68.1°F20.1°C 90% 1.2 mph SSW1.9 kmh SSW 5.8 mph9.3 kmh 29.84 in1010.5 mb - 0.00 in0.0 mm 0.01 in0.3 mm
10:00 PM 70.7°F21.5°C 67.6°F19.8°C 90% 1.2 mph SW1.9 kmh SW 4.6 mph7.4 kmh 29.85 in1010.8 mb - 0.00 in0.0 mm 0.01 in0.3 mm
10:30 PM 70.4°F21.3°C 67.3°F19.6°C 90% Calm Calm -- 29.85 in1010.8 mb - 0.00 in0.0 mm 0.01 in0.3 mm
11:00 PM 70.3°F21.3°C 67.5°F19.7°C 91% 2.3 mph WSW3.7 kmh WSW 3.5 mph5.6 kmh 29.84 in1010.5 mb - 0.00 in0.0 mm 0.01 in0.3 mm
11:30 PM 69.9°F21.1°C 67.5°F19.7°C 92% 1.2 mph SW1.9 kmh SW 1.2 mph1.9 kmh 29.85 in1010.8 mb - 0.00 in0.0 mm 0.01 in0.3 mm